createdAt,value
2017-12-06T00:00:58.465Z,15.10
2017-12-06T00:03:26.003Z,12.63
2017-12-06T00:05:54.297Z,15.97
2017-12-06T00:08:21.820Z,16.27
2017-12-06T00:10:49.373Z,14.13
2017-12-06T00:13:22.473Z,13.23
2017-12-06T00:15:50.009Z,13.73
2017-12-06T00:18:17.532Z,14.07
2017-12-06T00:20:45.097Z,13.67
2017-12-06T00:23:13.363Z,13.90
2017-12-06T00:25:40.877Z,13.00
2017-12-06T00:28:08.400Z,13.67
2017-12-06T00:30:35.936Z,15.30
2017-12-06T00:33:03.509Z,15.30
2017-12-06T00:35:31.030Z,14.37
2017-12-06T00:37:58.545Z,13.97
2017-12-06T00:40:26.077Z,14.50
2017-12-06T00:42:54.355Z,15.60
2017-12-06T00:45:21.865Z,14.60
2017-12-06T00:47:50.168Z,15.00
2017-12-06T00:50:18.449Z,16.67
2017-12-06T00:52:47.651Z,14.83
2017-12-06T00:55:15.247Z,12.83
2017-12-06T00:57:42.758Z,13.13
2017-12-06T01:00:10.294Z,11.70
2017-12-06T01:02:38.588Z,13.13
2017-12-06T01:05:06.098Z,14.73
2017-12-06T01:07:33.634Z,12.80
2017-12-06T01:10:01.154Z,13.23
2017-12-06T01:12:28.657Z,15.10
2017-12-06T01:14:56.965Z,13.20
2017-12-06T01:17:24.474Z,14.00
2017-12-06T01:19:51.998Z,13.30
2017-12-06T01:22:19.532Z,13.70
2017-12-06T01:24:47.044Z,11.83
2017-12-06T01:27:14.558Z,11.73
2017-12-06T01:29:42.090Z,14.80
2017-12-06T01:32:10.369Z,13.00
2017-12-06T01:34:38.652Z,13.53
2017-12-06T01:37:06.189Z,12.80
2017-12-06T01:39:34.478Z,12.30
2017-12-06T01:42:01.995Z,14.10
2017-12-06T01:44:29.541Z,13.70
2017-12-06T01:46:57.077Z,12.97
2017-12-06T01:49:24.592Z,13.60
2017-12-06T01:51:52.125Z,11.97
2017-12-06T01:54:19.643Z,13.20
2017-12-06T01:56:47.185Z,14.40
2017-12-06T01:59:15.543Z,13.87
2017-12-06T02:01:43.056Z,13.67
2017-12-06T02:04:10.575Z,13.70
2017-12-06T02:06:38.129Z,15.70
2017-12-06T02:09:05.638Z,15.73
2017-12-06T02:11:33.148Z,15.10
2017-12-06T02:14:00.691Z,13.87
2017-12-06T02:16:28.207Z,14.10
2017-12-06T02:18:55.720Z,14.43
2017-12-06T02:21:23.252Z,16.17
2017-12-06T02:23:50.770Z,15.20
2017-12-06T02:26:19.044Z,14.97
2017-12-06T02:28:47.356Z,13.13
2017-12-06T02:31:14.871Z,12.90
2017-12-06T02:33:42.974Z,13.33
2017-12-06T02:36:10.500Z,15.13
2017-12-06T02:38:38.017Z,15.53
2017-12-06T02:41:17.406Z,13.67
2017-12-06T02:43:56.949Z,14.97
2017-12-06T02:46:24.492Z,15.73
2017-12-06T02:48:52.056Z,14.43
2017-12-06T02:51:20.362Z,14.60
2017-12-06T02:53:47.894Z,17.77
2017-12-06T02:56:15.441Z,16.07
2017-12-06T02:58:42.962Z,13.67
2017-12-06T03:01:10.529Z,15.60
2017-12-06T03:03:38.120Z,14.43
2017-12-06T03:06:05.657Z,13.70
2017-12-06T03:08:33.177Z,14.27
2017-12-06T03:11:01.462Z,13.67
2017-12-06T03:13:29.003Z,14.30
2017-12-06T03:15:56.524Z,14.07
2017-12-06T03:18:24.036Z,12.87
2017-12-06T03:20:51.639Z,13.30
2017-12-06T03:23:19.149Z,11.90
2017-12-06T03:25:47.444Z,12.90
2017-12-06T03:28:14.997Z,12.10
2017-12-06T03:30:42.535Z,11.30
2017-12-06T03:33:10.822Z,12.30
2017-12-06T03:35:39.104Z,12.30
2017-12-06T03:38:07.409Z,12.03
2017-12-06T03:40:34.921Z,9.50
2017-12-06T03:43:02.433Z,11.30
2017-12-06T03:45:29.972Z,10.20
2017-12-06T03:47:57.494Z,11.10
2017-12-06T03:50:25.017Z,9.57
2017-12-06T03:52:52.541Z,8.73
2017-12-06T03:55:20.041Z,9.17
2017-12-06T03:57:48.347Z,7.90
2017-12-06T04:00:15.919Z,8.27
2017-12-06T04:02:44.217Z,8.67
2017-12-06T04:05:12.522Z,10.13
2017-12-06T04:07:40.029Z,9.90
2017-12-06T04:10:07.533Z,9.20
2017-12-06T04:12:35.083Z,9.30
2017-12-06T04:15:02.594Z,9.40
2017-12-06T04:17:30.106Z,9.60
2017-12-06T04:19:57.646Z,10.90
2017-12-06T04:22:25.170Z,9.60
2017-12-06T04:24:52.668Z,8.00
2017-12-06T04:27:20.973Z,8.80
2017-12-06T04:29:48.485Z,9.60
2017-12-06T04:32:16.016Z,9.80
2017-12-06T04:34:43.546Z,9.60
2017-12-06T04:37:11.066Z,10.13
2017-12-06T04:39:39.355Z,10.37
2017-12-06T04:42:07.637Z,8.83
2017-12-06T04:44:35.973Z,10.67
2017-12-06T04:47:03.500Z,9.00
2017-12-06T04:49:31.032Z,9.23
2017-12-06T04:51:58.569Z,8.20
2017-12-06T04:54:26.081Z,9.27
2017-12-06T04:56:53.597Z,9.00
2017-12-06T04:59:21.120Z,9.17
2017-12-06T05:01:48.625Z,9.53
2017-12-06T05:04:16.157Z,9.80
2017-12-06T05:06:43.691Z,9.03
2017-12-06T05:09:11.197Z,9.00
2017-12-06T05:11:39.498Z,9.40
2017-12-06T05:14:07.027Z,8.90
2017-12-06T05:16:34.533Z,8.60
2017-12-06T05:19:02.066Z,9.00
2017-12-06T05:21:30.336Z,8.80
2017-12-06T05:23:58.637Z,9.03
2017-12-06T05:26:26.203Z,9.20
2017-12-06T05:28:53.712Z,9.10
2017-12-06T05:31:21.249Z,9.87
2017-12-06T05:33:48.777Z,7.73
2017-12-06T05:36:16.285Z,9.00
2017-12-06T05:38:43.793Z,9.13
2017-12-06T05:41:11.323Z,9.47
2017-12-06T05:43:38.829Z,8.17
2017-12-06T05:46:06.462Z,8.27
2017-12-06T05:48:35.128Z,8.43
2017-12-06T05:51:02.643Z,8.57
2017-12-06T05:53:30.182Z,8.47
2017-12-06T05:55:57.700Z,9.53
2017-12-06T05:58:25.226Z,8.57
2017-12-06T06:00:52.769Z,9.43
2017-12-06T06:03:20.268Z,9.00
2017-12-06T06:05:47.782Z,9.33
2017-12-06T06:08:15.313Z,8.90
2017-12-06T06:10:43.596Z,10.03
2017-12-06T06:13:11.873Z,9.83
2017-12-06T06:15:40.192Z,9.10
2017-12-06T06:18:07.715Z,10.37
2017-12-06T06:20:36.095Z,8.50
2017-12-06T06:23:04.389Z,10.53
2017-12-06T06:25:31.904Z,9.63
2017-12-06T06:27:59.430Z,10.63
2017-12-06T06:30:26.971Z,10.57
2017-12-06T06:32:54.490Z,11.17
2017-12-06T06:35:22.032Z,8.63
2017-12-06T06:37:49.541Z,8.60
2017-12-06T06:40:17.053Z,9.30
2017-12-06T06:42:44.594Z,11.20
2017-12-06T06:45:12.111Z,9.00
2017-12-06T06:47:40.397Z,10.50
2017-12-06T06:50:07.931Z,9.77
2017-12-06T06:52:35.442Z,9.20
2017-12-06T06:55:02.943Z,8.57
2017-12-06T06:57:30.476Z,9.20
2017-12-06T06:59:57.984Z,9.27
2017-12-06T07:02:25.509Z,10.17
2017-12-06T07:04:53.049Z,10.90
2017-12-06T07:07:20.548Z,8.90
2017-12-06T07:09:48.853Z,9.30
2017-12-06T07:12:16.423Z,10.67
2017-12-06T07:14:43.934Z,9.90
2017-12-06T07:17:11.457Z,9.57
2017-12-06T07:19:44.545Z,10.90
2017-12-06T07:22:12.932Z,11.90
2017-12-06T07:24:40.474Z,10.00
2017-12-06T07:27:07.998Z,10.30
2017-12-06T07:29:36.308Z,10.53
2017-12-06T07:32:03.854Z,10.00
2017-12-06T07:34:31.373Z,9.70
2017-12-06T07:36:58.893Z,9.87
2017-12-06T07:39:26.564Z,10.53
2017-12-06T07:41:54.083Z,10.10
2017-12-06T07:44:21.607Z,8.23
2017-12-06T07:46:49.334Z,9.40
2017-12-06T07:49:18.025Z,8.90
2017-12-06T07:51:46.445Z,8.87
2017-12-06T07:54:13.961Z,9.57
2017-12-06T07:56:41.470Z,9.20
2017-12-06T07:59:09.093Z,8.87
2017-12-06T08:01:36.649Z,9.07
2017-12-06T08:04:04.185Z,7.43
2017-12-06T08:06:31.814Z,8.30
2017-12-06T08:08:59.324Z,9.97
2017-12-06T08:11:26.857Z,9.60
2017-12-06T08:13:55.142Z,9.87
2017-12-06T08:16:22.657Z,8.30
2017-12-06T08:18:50.190Z,9.27
2017-12-06T08:21:17.694Z,9.47
2017-12-06T08:23:46.001Z,10.53
2017-12-06T08:26:13.508Z,9.57
2017-12-06T08:28:41.023Z,10.67
2017-12-06T08:31:08.556Z,8.07
2017-12-06T08:33:36.836Z,8.83
2017-12-06T08:36:05.111Z,8.80
2017-12-06T08:38:33.437Z,8.57
2017-12-06T08:41:00.956Z,9.53
2017-12-06T08:43:28.461Z,8.77
2017-12-06T08:45:56.765Z,10.23
2017-12-06T08:48:24.268Z,8.33
2017-12-06T08:50:51.780Z,10.00
2017-12-06T08:53:19.321Z,9.47
2017-12-06T08:55:46.836Z,9.90
2017-12-06T08:58:15.136Z,11.70
2017-12-06T09:00:42.649Z,9.20
2017-12-06T09:03:10.169Z,9.03
2017-12-06T09:05:37.715Z,9.33
2017-12-06T09:08:05.249Z,9.60
2017-12-06T09:10:33.659Z,10.40
2017-12-06T09:13:01.198Z,9.33
2017-12-06T09:15:28.717Z,11.50
2017-12-06T09:17:56.225Z,9.47
2017-12-06T09:20:23.767Z,9.23
2017-12-06T09:22:52.048Z,9.17
2017-12-06T09:25:19.553Z,8.57
2017-12-06T09:27:47.093Z,10.47
2017-12-06T09:30:14.605Z,11.53
2017-12-06T09:32:42.143Z,9.77
2017-12-06T09:35:09.662Z,9.60
2017-12-06T09:37:37.181Z,10.80
2017-12-06T09:40:04.718Z,11.03
2017-12-06T09:42:32.231Z,11.07
2017-12-06T09:44:59.753Z,9.63
2017-12-06T09:47:27.276Z,12.47
2017-12-06T09:49:54.787Z,11.00
2017-12-06T09:52:23.063Z,12.30
2017-12-06T09:54:51.381Z,10.83
2017-12-06T09:57:18.897Z,10.10
2017-12-06T09:59:47.190Z,10.73
2017-12-06T10:02:14.737Z,10.73
2017-12-06T10:04:42.248Z,10.43
2017-12-06T10:07:09.758Z,11.03
2017-12-06T10:09:38.153Z,9.80
2017-12-06T10:12:05.670Z,10.37
2017-12-06T10:14:33.198Z,11.70
2017-12-06T10:17:00.744Z,11.90
2017-12-06T10:19:28.255Z,9.80
2017-12-06T10:21:55.765Z,10.13
2017-12-06T10:24:23.309Z,11.80
2017-12-06T10:26:51.584Z,9.83
2017-12-06T10:29:19.857Z,9.97
2017-12-06T10:31:48.189Z,10.13
2017-12-06T10:34:15.700Z,12.00
2017-12-06T10:36:43.202Z,10.77
2017-12-06T10:39:10.737Z,10.00
2017-12-06T10:41:53.338Z,9.93
2017-12-06T10:44:20.877Z,10.07
2017-12-06T10:46:48.413Z,11.43
2017-12-06T10:49:15.928Z,9.90
2017-12-06T10:51:43.457Z,10.50
2017-12-06T10:54:11.756Z,10.50
2017-12-06T10:56:39.273Z,12.87
2017-12-06T10:59:06.780Z,9.50
2017-12-06T11:01:34.320Z,10.83
2017-12-06T11:04:02.596Z,10.23
2017-12-06T11:06:30.877Z,10.47
2017-12-06T11:08:59.175Z,9.40
2017-12-06T11:11:26.697Z,10.17
2017-12-06T11:13:55.207Z,10.43
2017-12-06T11:16:22.748Z,10.80
2017-12-06T11:18:51.041Z,8.40
2017-12-06T11:21:18.575Z,10.10
2017-12-06T11:23:46.085Z,9.17
2017-12-06T11:26:15.704Z,10.43
2017-12-06T11:28:43.212Z,9.37
2017-12-06T11:31:10.829Z,12.10
2017-12-06T11:33:38.472Z,11.13
2017-12-06T11:36:06.089Z,9.40
2017-12-06T11:38:34.396Z,11.57
2017-12-06T11:41:01.918Z,10.93
2017-12-06T11:43:29.495Z,12.50
2017-12-06T11:45:57.786Z,9.93
2017-12-06T11:48:26.059Z,12.67
2017-12-06T11:50:54.366Z,10.10
2017-12-06T11:53:21.898Z,11.00
2017-12-06T11:55:49.425Z,9.53
2017-12-06T11:58:16.973Z,9.60
2017-12-06T12:00:44.501Z,8.50
2017-12-06T12:03:12.013Z,9.57
2017-12-06T12:05:39.539Z,8.80
2017-12-06T12:08:07.050Z,10.80
2017-12-06T12:10:35.392Z,8.83
2017-12-06T12:13:02.917Z,9.27
2017-12-06T12:15:30.437Z,10.20
2017-12-06T12:17:58.738Z,9.20
2017-12-06T12:20:26.272Z,9.50
2017-12-06T12:22:54.764Z,8.83
2017-12-06T12:25:23.036Z,9.00
2017-12-06T12:27:51.304Z,7.50
2017-12-06T12:30:19.253Z,8.63
2017-12-06T12:32:46.765Z,8.57
2017-12-06T12:35:14.292Z,9.03
2017-12-06T12:37:41.821Z,8.43
2017-12-06T12:40:09.337Z,9.73
2017-12-06T12:42:37.785Z,10.10
2017-12-06T12:45:05.341Z,10.13
2017-12-06T12:47:32.905Z,8.00
2017-12-06T12:50:00.418Z,7.30
2017-12-06T12:52:27.951Z,10.30
2017-12-06T12:54:56.258Z,9.20
2017-12-06T12:57:23.768Z,9.00
2017-12-06T12:59:51.293Z,8.77
2017-12-06T13:02:18.835Z,9.00
2017-12-06T13:04:46.360Z,9.10
2017-12-06T13:07:14.657Z,8.20
2017-12-06T13:09:42.196Z,8.83
2017-12-06T13:12:09.729Z,8.10
2017-12-06T13:14:37.273Z,7.90
2017-12-06T13:17:04.781Z,9.47
2017-12-06T13:19:33.052Z,10.47
2017-12-06T13:22:00.601Z,10.20
2017-12-06T13:24:28.102Z,8.60
2017-12-06T13:26:55.616Z,11.03
2017-12-06T13:29:23.140Z,8.97
2017-12-06T13:31:50.652Z,8.00
2017-12-06T13:34:18.934Z,8.20
2017-12-06T13:36:47.228Z,9.40
2017-12-06T13:39:14.784Z,7.93
2017-12-06T13:41:42.298Z,8.23
2017-12-06T13:44:09.834Z,9.70
2017-12-06T13:46:37.345Z,9.63
2017-12-06T13:49:05.625Z,8.07
2017-12-06T13:51:34.109Z,9.83
2017-12-06T13:54:02.403Z,9.27
2017-12-06T13:56:29.933Z,9.87
2017-12-06T13:58:57.477Z,9.73
2017-12-06T14:01:24.988Z,9.93
2017-12-06T14:03:52.512Z,10.30
2017-12-06T14:06:20.821Z,10.33
2017-12-06T14:08:48.371Z,8.30
2017-12-06T14:11:16.704Z,8.67
2017-12-06T14:13:44.270Z,10.00
2017-12-06T14:16:11.791Z,9.10
2017-12-06T14:18:39.387Z,9.67
2017-12-06T14:21:07.025Z,9.33
2017-12-06T14:23:34.611Z,9.30
2017-12-06T14:26:02.181Z,10.80
2017-12-06T14:28:29.705Z,9.40
2017-12-06T14:30:57.319Z,9.17
2017-12-06T14:33:25.684Z,10.47
2017-12-06T14:35:53.241Z,9.77
2017-12-06T14:38:20.801Z,8.37
2017-12-06T14:40:48.368Z,9.50
2017-12-06T14:43:15.955Z,8.70
2017-12-06T14:45:43.489Z,9.73
2017-12-06T14:48:11.007Z,10.33
2017-12-06T14:50:38.575Z,10.67
2017-12-06T14:53:06.130Z,9.77
2017-12-06T14:55:33.768Z,9.20
2017-12-06T14:58:01.367Z,10.17
2017-12-06T15:00:28.980Z,9.30
2017-12-06T15:02:56.923Z,9.27
2017-12-06T15:05:26.091Z,9.40
2017-12-06T15:07:53.632Z,8.83
2017-12-06T15:10:21.207Z,8.13
2017-12-06T15:12:48.846Z,7.67
2017-12-06T15:15:16.650Z,8.20
2017-12-06T15:17:44.248Z,7.37
2017-12-06T15:20:12.544Z,7.80
2017-12-06T15:22:40.339Z,7.67
2017-12-06T15:25:07.857Z,6.77
2017-12-06T15:27:36.231Z,8.50
2017-12-06T15:30:03.848Z,8.60
2017-12-06T15:32:31.427Z,8.60
2017-12-06T15:34:58.963Z,7.40
2017-12-06T15:37:26.561Z,8.30
2017-12-06T15:39:54.133Z,8.10
2017-12-06T15:42:22.446Z,7.23
2017-12-06T15:44:50.156Z,7.40
2017-12-06T15:47:17.892Z,7.57
2017-12-06T15:49:45.465Z,8.10
2017-12-06T15:52:13.825Z,9.13
2017-12-06T15:54:41.346Z,8.53
2017-12-06T15:57:08.900Z,9.67
2017-12-06T15:59:37.313Z,8.33
2017-12-06T16:02:07.684Z,8.10
2017-12-06T16:04:35.284Z,9.80
2017-12-06T16:07:02.877Z,9.80
2017-12-06T16:09:31.380Z,8.67
2017-12-06T16:11:58.994Z,7.50
2017-12-06T16:14:26.568Z,8.23
2017-12-06T16:16:54.266Z,7.07
2017-12-06T16:19:21.838Z,8.07
2017-12-06T16:21:49.449Z,10.47
2017-12-06T16:24:17.358Z,7.93
2017-12-06T16:26:45.326Z,7.40
2017-12-06T16:29:13.638Z,7.90
2017-12-06T16:31:42.002Z,8.77
2017-12-06T16:34:10.377Z,9.50
2017-12-06T16:36:49.792Z,7.90
2017-12-06T16:39:18.144Z,8.50
2017-12-06T16:41:45.740Z,8.07
2017-12-06T16:44:13.305Z,8.40
2017-12-06T16:46:40.812Z,8.40
2017-12-06T16:49:08.392Z,7.00
2017-12-06T16:51:35.983Z,7.13
2017-12-06T16:54:03.517Z,8.43
2017-12-06T16:56:31.044Z,7.90
2017-12-06T16:58:58.663Z,8.90
2017-12-06T17:01:26.952Z,8.60
2017-12-06T17:03:54.525Z,8.33
2017-12-06T17:06:22.108Z,8.27
2017-12-06T17:08:49.616Z,8.60
2017-12-06T17:11:17.229Z,7.50
2017-12-06T17:13:45.049Z,7.83
2017-12-06T17:16:12.690Z,8.13
2017-12-06T17:18:40.258Z,7.77
2017-12-06T17:21:07.783Z,8.83
2017-12-06T17:23:35.468Z,7.80
2017-12-06T17:26:03.012Z,7.83
2017-12-06T17:28:42.324Z,8.20
2017-12-06T17:31:21.689Z,7.87
2017-12-06T17:33:49.304Z,8.40
2017-12-06T17:36:16.852Z,7.70
2017-12-06T17:38:44.389Z,8.73
2017-12-06T17:41:11.931Z,9.93
2017-12-06T17:43:39.454Z,8.93
2017-12-06T17:46:07.802Z,7.87
2017-12-06T17:48:35.456Z,8.50
2017-12-06T17:51:02.998Z,8.30
2017-12-06T17:53:30.613Z,9.97
2017-12-06T17:55:58.965Z,10.00
2017-12-06T17:58:26.492Z,8.47
2017-12-06T18:00:54.062Z,9.03
2017-12-06T18:03:21.689Z,9.27
2017-12-06T18:05:49.213Z,7.57
2017-12-06T18:08:17.537Z,7.80
2017-12-06T18:10:45.089Z,9.00
2017-12-06T18:13:12.662Z,8.13
2017-12-06T18:15:40.227Z,7.33
2017-12-06T18:18:07.836Z,8.40
2017-12-06T18:20:35.397Z,8.60
2017-12-06T18:23:02.976Z,6.53
2017-12-06T18:25:31.378Z,9.10
2017-12-06T18:27:58.923Z,8.83
2017-12-06T18:30:26.434Z,8.53
2017-12-06T18:32:54.195Z,7.77
2017-12-06T18:35:21.785Z,7.23
2017-12-06T18:37:49.318Z,7.10
2017-12-06T18:40:16.879Z,8.10
2017-12-06T18:42:44.400Z,7.80
2017-12-06T18:45:12.029Z,8.60
2017-12-06T18:47:39.820Z,7.80
2017-12-06T18:50:08.106Z,7.87
2017-12-06T18:52:35.661Z,6.57
2017-12-06T18:55:03.237Z,7.33
2017-12-06T18:57:30.937Z,7.23
2017-12-06T18:59:58.698Z,7.10
2017-12-06T19:02:26.571Z,7.10
2017-12-06T19:04:54.260Z,7.03
2017-12-06T19:07:22.962Z,6.73
2017-12-06T19:09:51.261Z,7.40
2017-12-06T19:12:19.289Z,7.87
2017-12-06T19:14:47.873Z,7.00
2017-12-06T19:17:16.624Z,7.53
2017-12-06T19:19:45.497Z,6.80
2017-12-06T19:22:13.917Z,6.97
2017-12-06T19:24:43.950Z,7.53
2017-12-06T19:27:12.691Z,7.97
2017-12-06T19:29:40.701Z,7.33
2017-12-06T19:32:08.596Z,6.83
2017-12-06T19:34:36.682Z,8.27
2017-12-06T19:37:04.447Z,7.17
2017-12-06T19:39:32.541Z,6.43
2017-12-06T19:42:00.601Z,6.90
2017-12-06T19:44:46.375Z,6.90
2017-12-06T19:47:16.670Z,6.07
2017-12-06T19:49:45.142Z,6.70
2017-12-06T19:52:14.103Z,5.47
2017-12-06T19:54:42.442Z,6.60
2017-12-06T19:57:26.844Z,6.03
2017-12-06T19:59:55.330Z,7.27
2017-12-06T20:02:23.741Z,5.37
2017-12-06T20:04:52.422Z,6.23
2017-12-06T20:07:22.821Z,6.27
2017-12-06T20:09:53.463Z,6.70
2017-12-06T20:12:28.048Z,6.33
2017-12-06T20:14:59.288Z,7.30
2017-12-06T20:17:28.076Z,7.53
2017-12-06T20:19:58.602Z,7.60
2017-12-06T20:22:26.811Z,6.17
2017-12-06T20:24:56.562Z,7.10
2017-12-06T20:27:26.809Z,7.47
2017-12-06T20:29:56.794Z,6.97
2017-12-06T20:32:29.195Z,6.00
2017-12-06T20:35:00.668Z,6.40
2017-12-06T20:37:33.154Z,6.53
2017-12-06T20:40:04.280Z,6.43
2017-12-06T20:42:35.387Z,6.30
2017-12-06T20:45:04.603Z,6.00
2017-12-06T20:47:36.778Z,6.90
2017-12-06T20:50:07.926Z,6.43
2017-12-06T20:52:38.441Z,5.90
2017-12-06T20:55:08.111Z,5.87
2017-12-06T20:57:39.316Z,7.00
2017-12-06T21:00:08.256Z,6.10
2017-12-06T21:02:39.137Z,5.30
2017-12-06T21:05:08.658Z,6.90
2017-12-06T21:07:38.460Z,6.20
2017-12-06T21:10:09.476Z,6.10
2017-12-06T21:12:40.062Z,6.67
2017-12-06T21:15:12.266Z,5.30
2017-12-06T21:17:41.545Z,5.87
2017-12-06T21:20:11.086Z,4.70
2017-12-06T21:22:39.605Z,5.00
2017-12-06T21:25:12.818Z,4.40
2017-12-06T21:27:45.116Z,5.20
2017-12-06T21:30:13.610Z,4.73
2017-12-06T21:32:41.207Z,5.43
2017-12-06T21:35:09.492Z,4.47
2017-12-06T21:37:37.932Z,4.30
2017-12-06T21:40:05.468Z,4.57
2017-12-06T21:42:33.023Z,5.30
2017-12-06T21:45:00.562Z,4.63
2017-12-06T21:47:28.082Z,4.20
2017-12-06T21:49:55.614Z,4.60
2017-12-06T21:52:25.924Z,4.80
2017-12-06T21:54:54.310Z,4.17
2017-12-06T21:57:21.834Z,4.57
2017-12-06T21:59:49.373Z,5.80
2017-12-06T22:02:17.682Z,4.33
2017-12-06T22:04:51.120Z,4.53
2017-12-06T22:07:18.633Z,4.50
2017-12-06T22:09:46.905Z,5.00
2017-12-06T22:12:15.197Z,5.13
2017-12-06T22:14:42.717Z,4.40
2017-12-06T22:17:10.258Z,4.30
2017-12-06T22:19:37.764Z,4.80
2017-12-06T22:22:05.273Z,4.30
2017-12-06T22:24:32.804Z,4.33
2017-12-06T22:27:00.321Z,5.07
2017-12-06T22:29:27.881Z,4.90
2017-12-06T22:31:55.406Z,4.70
2017-12-06T22:34:22.916Z,5.57
2017-12-06T22:36:51.198Z,5.60
2017-12-06T22:39:18.728Z,5.80
2017-12-06T22:41:46.233Z,6.30
2017-12-06T22:44:13.745Z,5.83
2017-12-06T22:46:41.269Z,5.90
2017-12-06T22:49:08.774Z,5.50
2017-12-06T22:51:36.279Z,6.03
2017-12-06T22:54:03.822Z,6.30
2017-12-06T22:56:31.333Z,6.53
2017-12-06T22:58:58.864Z,6.83
2017-12-06T23:01:26.381Z,6.10
2017-12-06T23:03:53.895Z,7.60
2017-12-06T23:06:21.396Z,6.50
2017-12-06T23:08:49.701Z,6.90
2017-12-06T23:11:17.207Z,6.20
2017-12-06T23:13:44.773Z,6.27
2017-12-06T23:16:12.314Z,6.53
2017-12-06T23:18:39.821Z,6.50
2017-12-06T23:21:08.089Z,6.30
2017-12-06T23:23:36.405Z,7.57
2017-12-06T23:26:03.914Z,6.37
2017-12-06T23:28:31.418Z,6.20
2017-12-06T23:30:58.950Z,7.20
2017-12-06T23:33:27.227Z,8.30
2017-12-06T23:35:55.508Z,7.90
2017-12-06T23:38:23.812Z,8.17
2017-12-06T23:40:51.407Z,7.67
2017-12-06T23:43:18.943Z,8.47
2017-12-06T23:45:46.473Z,8.20
2017-12-06T23:48:13.985Z,7.60
2017-12-06T23:50:41.506Z,8.80
2017-12-06T23:53:09.040Z,7.40
2017-12-06T23:55:36.617Z,6.20
2017-12-06T23:58:04.126Z,7.17
